Terminal Aerodrome Forecast
Issued by NWS

Current Version | Previous Version | Graphics & Text | Print | Product List | Glossary On
Versions: 1 2 3 4 5 6 7 8 9 10 11 12 13 14
000
FTUS41 KPBZ 251720
TAFMGW
TAF
KMGW 251720Z 2518/2618 08010KT P6SM BKN080
     FM260200 07004KT P6SM SCT060
     FM260800 00000KT 3SM BR SCT050
     FM261300 20004KT P6SM SCT080=

USA.gov is the U.S. government's official web portal to all federal, state and local government web resources and services.